Terminal Aerodrome Forecast
Issued by NWS Melbourne, FL

Home | Current Version | Previous Version | Text Only | Print | Product List | Glossary On
Versions: 1 2 3 4 5 6 7 8 9 10 11 12 13 14 15 16 17 18
000
FTUS42 KMLB 250000 AAA
TAFMLB
TAF AMD
KMLB 250000Z 2500/2524 20008KT P6SM VCSH SCT035 BKN100 BKN250
      TEMPO 2500/2502 SHRA BKN020 BKN030
     FM250200 21010G15KT P6SM VCTS SCT020CB BKN040 OVC080
      TEMPO 2505/2507 VRB20G30KT 3SM SHRA BKN020 OVC040
     FM250700 25010KT P6SM VCSH SCT030 OVC060
     FM251200 30009KT P6SM BKN060=

USA.gov is the U.S. government's official web portal to all federal, state and local government web resources and services.